GLD1793 LPFL-LPLA
Flight info
| Callsign | GLD1793 |
|---|---|
| Flight time | 1h 11m |
| Altitude | 11000 |
| Route | DCT CR673 DCT CR674 DCT CR681 DCT VFL DCT H3827 DCT ODAKI DCT LA330 DCT |
| Aircraft | BE58/M-SDFGIRY/S |
Departure
| Time | 2026-05-09 21:33 |
|---|---|
| Airport | Flores Airport (LPFL) |
Arrival
| Time | 2026-05-09 22:44 |
|---|---|
| Airport | Lajes Airport (LPLA) |
| Time | Latitude | Longitude | Altitude | Speed | Heading |
|---|---|---|---|---|---|
| 2026-05-09 21:32 | 39.45431 | -31.13104 | 101 ft | 0 kts | 353° |
| 2026-05-09 21:32 | 39.45454 | -31.13110 | 101 ft | 24 kts | 347° |
| 2026-05-09 21:32 | 39.45860 | -31.13224 | 98 ft | 85 kts | 347° |
| 2026-05-09 21:32 | 39.46496 | -31.13409 | 207 ft | 104 kts | 347° |
| 2026-05-09 21:33 | 39.47277 | -31.13482 | 507 ft | 123 kts | 9° |
| 2026-05-09 21:33 | 39.48036 | -31.12953 | 1023 ft | 122 kts | 43° |
| 2026-05-09 21:33 | 39.48320 | -31.11963 | 1528 ft | 133 kts | 68° |
| 2026-05-09 21:33 | 39.48707 | -31.10702 | 1348 ft | 165 kts | 60° |
| 2026-05-09 21:34 | 39.49179 | -31.09246 | 1270 ft | 180 kts | 65° |
| 2026-05-09 21:34 | 39.49584 | -31.07747 | 1543 ft | 173 kts | 65° |
| 2026-05-09 21:34 | 39.49966 | -31.06307 | 1823 ft | 166 kts | 64° |
| 2026-05-09 21:34 | 39.50344 | -31.04902 | 2105 ft | 163 kts | 64° |
| 2026-05-09 21:35 | 39.50717 | -31.03519 | 2375 ft | 162 kts | 65° |
| 2026-05-09 21:35 | 39.51086 | -31.02148 | 2654 ft | 160 kts | 65° |
| 2026-05-09 21:35 | 39.51450 | -31.00791 | 2935 ft | 158 kts | 65° |
| 2026-05-09 21:35 | 39.51768 | -30.99428 | 3215 ft | 158 kts | 70° |
| 2026-05-09 21:36 | 39.52034 | -30.98056 | 3497 ft | 156 kts | 69° |
| 2026-05-09 21:36 | 39.52298 | -30.96693 | 3779 ft | 155 kts | 69° |
| 2026-05-09 21:36 | 39.52555 | -30.95359 | 4046 ft | 154 kts | 69° |
| 2026-05-09 21:36 | 39.52813 | -30.94023 | 4324 ft | 152 kts | 70° |
| 2026-05-09 21:37 | 39.53070 | -30.92691 | 4608 ft | 152 kts | 70° |
| 2026-05-09 21:37 | 39.53325 | -30.91369 | 4889 ft | 151 kts | 70° |
| 2026-05-09 21:37 | 39.53583 | -30.90037 | 5145 ft | 152 kts | 70° |
| 2026-05-09 21:37 | 39.53836 | -30.88726 | 5393 ft | 151 kts | 69° |
| 2026-05-09 21:38 | 39.54091 | -30.87402 | 5642 ft | 151 kts | 70° |
| 2026-05-09 21:38 | 39.54346 | -30.86079 | 5895 ft | 151 kts | 69° |
| 2026-05-09 21:38 | 39.54755 | -30.84827 | 6014 ft | 156 kts | 58° |
| 2026-05-09 21:38 | 39.55250 | -30.83525 | 6020 ft | 165 kts | 60° |
| 2026-05-09 21:39 | 39.55732 | -30.82142 | 6024 ft | 171 kts | 61° |
| 2026-05-09 21:39 | 39.56218 | -30.80712 | 6024 ft | 175 kts | 62° |
| 2026-05-09 21:39 | 39.56707 | -30.79268 | 6021 ft | 177 kts | 62° |
| 2026-05-09 21:39 | 39.57200 | -30.77813 | 6023 ft | 178 kts | 62° |
| 2026-05-09 21:40 | 39.57453 | -30.76225 | 6018 ft | 188 kts | 91° |
| 2026-05-09 21:40 | 39.56906 | -30.74658 | 6022 ft | 199 kts | 118° |
| 2026-05-09 21:40 | 39.56085 | -30.73193 | 6018 ft | 201 kts | 120° |
| 2026-05-09 21:40 | 39.55283 | -30.71714 | 6019 ft | 200 kts | 117° |
| 2026-05-09 21:41 | 39.54544 | -30.70185 | 6023 ft | 200 kts | 115° |
| 2026-05-09 21:41 | 39.53816 | -30.68645 | 6015 ft | 200 kts | 115° |
| 2026-05-09 21:41 | 39.53092 | -30.67127 | 6083 ft | 198 kts | 114° |
| 2026-05-09 21:41 | 39.52366 | -30.65609 | 6179 ft | 194 kts | 114° |
| 2026-05-09 21:42 | 39.51670 | -30.64162 | 6439 ft | 184 kts | 114° |
| 2026-05-09 21:42 | 39.51008 | -30.62779 | 6714 ft | 177 kts | 114° |
| 2026-05-09 21:42 | 39.50379 | -30.61463 | 6966 ft | 172 kts | 113° |
| 2026-05-09 21:42 | 39.49842 | -30.60101 | 7230 ft | 161 kts | 97° |
| 2026-05-09 21:43 | 39.49594 | -30.58732 | 7491 ft | 157 kts | 95° |
| 2026-05-09 21:43 | 39.49304 | -30.57360 | 7759 ft | 155 kts | 97° |
| 2026-05-09 21:43 | 39.48999 | -30.56052 | 8024 ft | 152 kts | 98° |
| 2026-05-09 21:43 | 39.48692 | -30.54759 | 8295 ft | 149 kts | 97° |
| 2026-05-09 21:44 | 39.48393 | -30.53498 | 8567 ft | 145 kts | 96° |
| 2026-05-09 21:44 | 39.48094 | -30.52267 | 8841 ft | 142 kts | 98° |
| 2026-05-09 21:44 | 39.47782 | -30.51066 | 9115 ft | 138 kts | 98° |
| 2026-05-09 21:44 | 39.47479 | -30.49901 | 9365 ft | 136 kts | 98° |
| 2026-05-09 21:45 | 39.47178 | -30.48737 | 9568 ft | 137 kts | 98° |
| 2026-05-09 21:45 | 39.46874 | -30.47567 | 9757 ft | 137 kts | 98° |
| 2026-05-09 21:45 | 39.46568 | -30.46392 | 9918 ft | 138 kts | 98° |
| 2026-05-09 21:45 | 39.46260 | -30.45211 | 10079 ft | 138 kts | 98° |
| 2026-05-09 21:46 | 39.45953 | -30.44032 | 10207 ft | 139 kts | 98° |
| 2026-05-09 21:46 | 39.45642 | -30.42835 | 10274 ft | 141 kts | 98° |
| 2026-05-09 21:46 | 39.45328 | -30.41627 | 10296 ft | 146 kts | 99° |
| 2026-05-09 21:46 | 39.44999 | -30.40367 | 10310 ft | 149 kts | 99° |
| 2026-05-09 21:47 | 39.44663 | -30.39079 | 10303 ft | 153 kts | 99° |
| 2026-05-09 21:47 | 39.44320 | -30.37767 | 10305 ft | 156 kts | 99° |
| 2026-05-09 21:47 | 39.43966 | -30.36410 | 10306 ft | 161 kts | 99° |
| 2026-05-09 21:47 | 39.43601 | -30.35020 | 10302 ft | 165 kts | 100° |
| 2026-05-09 21:48 | 39.43228 | -30.33600 | 10300 ft | 167 kts | 100° |
| 2026-05-09 21:48 | 39.42859 | -30.32189 | 10301 ft | 168 kts | 100° |
| 2026-05-09 21:48 | 39.42482 | -30.30751 | 10301 ft | 169 kts | 100° |
| 2026-05-09 21:48 | 39.42103 | -30.29312 | 10300 ft | 167 kts | 100° |
| 2026-05-09 21:49 | 39.41743 | -30.27875 | 10298 ft | 169 kts | 99° |
| 2026-05-09 21:49 | 39.41361 | -30.26444 | 10296 ft | 166 kts | 101° |
| 2026-05-09 21:49 | 39.40985 | -30.25051 | 10291 ft | 163 kts | 100° |
| 2026-05-09 21:49 | 39.40621 | -30.23666 | 10287 ft | 162 kts | 99° |
| 2026-05-09 21:50 | 39.40261 | -30.22292 | 10287 ft | 161 kts | 100° |
| 2026-05-09 21:50 | 39.39902 | -30.20924 | 10285 ft | 160 kts | 100° |
| 2026-05-09 21:50 | 39.39186 | -30.18200 | 10282 ft | 160 kts | 99° |
| 2026-05-09 21:51 | 39.38831 | -30.16852 | 10279 ft | 160 kts | 99° |
| 2026-05-09 21:51 | 39.38470 | -30.15484 | 10281 ft | 160 kts | 100° |
| 2026-05-09 21:51 | 39.38112 | -30.14125 | 10277 ft | 160 kts | 99° |
| 2026-05-09 21:51 | 39.37752 | -30.12760 | 10277 ft | 160 kts | 100° |
| 2026-05-09 21:52 | 39.37393 | -30.11401 | 10279 ft | 160 kts | 100° |
| 2026-05-09 21:52 | 39.37033 | -30.10035 | 10284 ft | 160 kts | 99° |
| 2026-05-09 21:52 | 39.36672 | -30.08670 | 10284 ft | 160 kts | 99° |
| 2026-05-09 21:52 | 39.36313 | -30.07310 | 10284 ft | 160 kts | 99° |
| 2026-05-09 21:53 | 39.35953 | -30.05953 | 10286 ft | 160 kts | 99° |
| 2026-05-09 21:53 | 39.35595 | -30.04598 | 10280 ft | 159 kts | 99° |
| 2026-05-09 21:53 | 39.35238 | -30.03250 | 10280 ft | 159 kts | 100° |
| 2026-05-09 21:54 | 39.34510 | -30.00497 | 10190 ft | 165 kts | 99° |
| 2026-05-09 21:54 | 39.34136 | -29.99087 | 10146 ft | 167 kts | 100° |
| 2026-05-09 21:54 | 39.33756 | -29.97656 | 10098 ft | 169 kts | 100° |
| 2026-05-09 21:54 | 39.33371 | -29.96210 | 10050 ft | 171 kts | 101° |
| 2026-05-09 21:55 | 39.32984 | -29.94750 | 9997 ft | 173 kts | 100° |
| 2026-05-09 21:55 | 39.32590 | -29.93271 | 9944 ft | 174 kts | 101° |
| 2026-05-09 21:55 | 39.32194 | -29.91782 | 9894 ft | 175 kts | 101° |
| 2026-05-09 21:55 | 39.31796 | -29.90287 | 9839 ft | 176 kts | 101° |
| 2026-05-09 21:56 | 39.31396 | -29.88787 | 9790 ft | 177 kts | 101° |
| 2026-05-09 21:56 | 39.30998 | -29.87295 | 9741 ft | 178 kts | 101° |
| 2026-05-09 21:56 | 39.30598 | -29.85792 | 9690 ft | 179 kts | 101° |
| 2026-05-09 21:56 | 39.30191 | -29.84268 | 9638 ft | 179 kts | 101° |
| 2026-05-09 21:57 | 39.29784 | -29.82743 | 9593 ft | 180 kts | 101° |
| 2026-05-09 21:57 | 39.29376 | -29.81214 | 9543 ft | 181 kts | 101° |
| 2026-05-09 21:57 | 39.28965 | -29.79676 | 9489 ft | 181 kts | 101° |
| 2026-05-09 21:57 | 39.28552 | -29.78136 | 9438 ft | 182 kts | 101° |
| 2026-05-09 21:58 | 39.28139 | -29.76591 | 9386 ft | 182 kts | 101° |
| 2026-05-09 21:58 | 39.27725 | -29.75045 | 9334 ft | 182 kts | 101° |
| 2026-05-09 21:58 | 39.27316 | -29.73516 | 9282 ft | 183 kts | 101° |
| 2026-05-09 21:58 | 39.26895 | -29.71952 | 9282 ft | 181 kts | 101° |
| 2026-05-09 21:59 | 39.26490 | -29.70442 | 9272 ft | 180 kts | 101° |
| 2026-05-09 21:59 | 39.26084 | -29.68930 | 9270 ft | 179 kts | 101° |
| 2026-05-09 21:59 | 39.25675 | -29.67405 | 9269 ft | 179 kts | 101° |
| 2026-05-09 21:59 | 39.25268 | -29.65887 | 9268 ft | 178 kts | 101° |
| 2026-05-09 22:00 | 39.24861 | -29.64376 | 9267 ft | 178 kts | 101° |
| 2026-05-09 22:00 | 39.24455 | -29.62867 | 9269 ft | 178 kts | 101° |
| 2026-05-09 22:00 | 39.24048 | -29.61356 | 9269 ft | 178 kts | 101° |
| 2026-05-09 22:00 | 39.23643 | -29.59852 | 9268 ft | 177 kts | 101° |
| 2026-05-09 22:01 | 39.23238 | -29.58349 | 9266 ft | 177 kts | 101° |
| 2026-05-09 22:01 | 39.22833 | -29.56847 | 9265 ft | 177 kts | 101° |
| 2026-05-09 22:01 | 39.22429 | -29.55348 | 9265 ft | 177 kts | 101° |
| 2026-05-09 22:01 | 39.22022 | -29.53843 | 9275 ft | 177 kts | 101° |
| 2026-05-09 22:02 | 39.21620 | -29.52354 | 9274 ft | 178 kts | 101° |
| 2026-05-09 22:02 | 39.21211 | -29.50842 | 9274 ft | 178 kts | 101° |
| 2026-05-09 22:02 | 39.20802 | -29.49329 | 9275 ft | 179 kts | 101° |
| 2026-05-09 22:02 | 39.20392 | -29.47815 | 9272 ft | 179 kts | 101° |
| 2026-05-09 22:03 | 39.19982 | -29.46302 | 9270 ft | 179 kts | 101° |
| 2026-05-09 22:03 | 39.19573 | -29.44791 | 9270 ft | 178 kts | 101° |
| 2026-05-09 22:03 | 39.19163 | -29.43278 | 9270 ft | 178 kts | 101° |
| 2026-05-09 22:03 | 39.18753 | -29.41769 | 9269 ft | 178 kts | 101° |
| 2026-05-09 22:04 | 39.18345 | -29.40266 | 9271 ft | 178 kts | 101° |
| 2026-05-09 22:04 | 39.17935 | -29.38752 | 9274 ft | 181 kts | 101° |
| 2026-05-09 22:04 | 39.17512 | -29.37198 | 9275 ft | 184 kts | 101° |
| 2026-05-09 22:04 | 39.17088 | -29.35638 | 9267 ft | 186 kts | 101° |
| 2026-05-09 22:05 | 39.16658 | -29.34059 | 9263 ft | 187 kts | 102° |
| 2026-05-09 22:05 | 39.16225 | -29.32470 | 9265 ft | 188 kts | 102° |
| 2026-05-09 22:05 | 39.15939 | -29.31419 | 9265 ft | 188 kts | 102° |
| 2026-05-09 22:05 | 39.15362 | -29.29306 | 9264 ft | 188 kts | 101° |
| 2026-05-09 22:06 | 39.14927 | -29.27713 | 9272 ft | 189 kts | 102° |
| 2026-05-09 22:06 | 39.14491 | -29.26116 | 9260 ft | 189 kts | 102° |
| 2026-05-09 22:06 | 39.14054 | -29.24516 | 9265 ft | 189 kts | 102° |
| 2026-05-09 22:06 | 39.13759 | -29.23433 | 9260 ft | 190 kts | 102° |
| 2026-05-09 22:07 | 39.13327 | -29.21857 | 9263 ft | 190 kts | 102° |
| 2026-05-09 22:07 | 39.12887 | -29.20248 | 9263 ft | 190 kts | 102° |
| 2026-05-09 22:07 | 39.12448 | -29.18643 | 9263 ft | 190 kts | 102° |
| 2026-05-09 22:07 | 39.12008 | -29.17037 | 9263 ft | 190 kts | 102° |
| 2026-05-09 22:08 | 39.11568 | -29.15432 | 9263 ft | 190 kts | 101° |
| 2026-05-09 22:08 | 39.11127 | -29.13826 | 9262 ft | 190 kts | 102° |
| 2026-05-09 22:08 | 39.10687 | -29.12223 | 9260 ft | 190 kts | 102° |
| 2026-05-09 22:08 | 39.10248 | -29.10623 | 9260 ft | 190 kts | 102° |
| 2026-05-09 22:09 | 39.09806 | -29.09014 | 9263 ft | 190 kts | 102° |
| 2026-05-09 22:09 | 39.09365 | -29.07410 | 9263 ft | 190 kts | 102° |
| 2026-05-09 22:09 | 39.08924 | -29.05808 | 9262 ft | 190 kts | 102° |
| 2026-05-09 22:09 | 39.08484 | -29.04209 | 9263 ft | 190 kts | 102° |
| 2026-05-09 22:10 | 39.08043 | -29.02607 | 9260 ft | 190 kts | 102° |
| 2026-05-09 22:10 | 39.07601 | -29.01004 | 9260 ft | 190 kts | 102° |
| 2026-05-09 22:10 | 39.07164 | -28.99421 | 9260 ft | 190 kts | 102° |
| 2026-05-09 22:10 | 39.06721 | -28.97816 | 9257 ft | 190 kts | 102° |
| 2026-05-09 22:11 | 39.06280 | -28.96216 | 9255 ft | 190 kts | 102° |
| 2026-05-09 22:11 | 39.05836 | -28.94612 | 9251 ft | 190 kts | 101° |
| 2026-05-09 22:11 | 39.05392 | -28.93005 | 9249 ft | 191 kts | 102° |
| 2026-05-09 22:11 | 39.04946 | -28.91393 | 9229 ft | 192 kts | 102° |
| 2026-05-09 22:12 | 39.04498 | -28.89773 | 9195 ft | 192 kts | 102° |
| 2026-05-09 22:12 | 39.04048 | -28.88149 | 9172 ft | 193 kts | 102° |
| 2026-05-09 22:12 | 39.03595 | -28.86515 | 9145 ft | 194 kts | 102° |
| 2026-05-09 22:12 | 39.03188 | -28.84893 | 9120 ft | 193 kts | 98° |
| 2026-05-09 22:13 | 39.02826 | -28.83270 | 9096 ft | 194 kts | 98° |
| 2026-05-09 22:13 | 39.02436 | -28.81602 | 9069 ft | 194 kts | 99° |
| 2026-05-09 22:13 | 39.02038 | -28.79935 | 9045 ft | 195 kts | 99° |
| 2026-05-09 22:13 | 39.01640 | -28.78272 | 9019 ft | 194 kts | 100° |
| 2026-05-09 22:14 | 39.01242 | -28.76609 | 8991 ft | 195 kts | 99° |
| 2026-05-09 22:14 | 39.00844 | -28.74943 | 8965 ft | 195 kts | 100° |
| 2026-05-09 22:14 | 39.00445 | -28.73273 | 8940 ft | 195 kts | 99° |
| 2026-05-09 22:14 | 39.00044 | -28.71600 | 8898 ft | 196 kts | 100° |
| 2026-05-09 22:15 | 38.99640 | -28.69912 | 8847 ft | 198 kts | 99° |
| 2026-05-09 22:15 | 38.99235 | -28.68221 | 8796 ft | 199 kts | 100° |
| 2026-05-09 22:15 | 38.98827 | -28.66523 | 8742 ft | 199 kts | 99° |
| 2026-05-09 22:15 | 38.98418 | -28.64821 | 8701 ft | 199 kts | 99° |
| 2026-05-09 22:16 | 38.98012 | -28.63132 | 8649 ft | 196 kts | 99° |
| 2026-05-09 22:16 | 38.97615 | -28.61484 | 8595 ft | 194 kts | 99° |
| 2026-05-09 22:16 | 38.97217 | -28.59828 | 8542 ft | 194 kts | 99° |
| 2026-05-09 22:16 | 38.96817 | -28.58159 | 8491 ft | 196 kts | 99° |
| 2026-05-09 22:17 | 38.96411 | -28.56475 | 8446 ft | 198 kts | 100° |
| 2026-05-09 22:17 | 38.96003 | -28.54785 | 8392 ft | 198 kts | 100° |
| 2026-05-09 22:17 | 38.95592 | -28.53080 | 8335 ft | 200 kts | 99° |
| 2026-05-09 22:17 | 38.95178 | -28.51364 | 8260 ft | 201 kts | 99° |
| 2026-05-09 22:18 | 38.94761 | -28.49639 | 8185 ft | 203 kts | 100° |
| 2026-05-09 22:18 | 38.94345 | -28.47920 | 8111 ft | 204 kts | 100° |
| 2026-05-09 22:18 | 38.93917 | -28.46154 | 8034 ft | 205 kts | 100° |
| 2026-05-09 22:18 | 38.93501 | -28.44436 | 7961 ft | 205 kts | 100° |
| 2026-05-09 22:19 | 38.93077 | -28.42686 | 7883 ft | 205 kts | 100° |
| 2026-05-09 22:19 | 38.92652 | -28.40935 | 7807 ft | 205 kts | 100° |
| 2026-05-09 22:19 | 38.92227 | -28.39184 | 7732 ft | 205 kts | 100° |
| 2026-05-09 22:19 | 38.91802 | -28.37432 | 7648 ft | 205 kts | 100° |
| 2026-05-09 22:20 | 38.91376 | -28.35680 | 7582 ft | 206 kts | 101° |
| 2026-05-09 22:20 | 38.90954 | -28.33946 | 7508 ft | 206 kts | 100° |
| 2026-05-09 22:20 | 38.90526 | -28.32188 | 7434 ft | 206 kts | 100° |
| 2026-05-09 22:20 | 38.90099 | -28.30435 | 7357 ft | 206 kts | 100° |
| 2026-05-09 22:21 | 38.89671 | -28.28681 | 7282 ft | 205 kts | 100° |
| 2026-05-09 22:21 | 38.89243 | -28.26927 | 7208 ft | 205 kts | 100° |
| 2026-05-09 22:21 | 38.88819 | -28.25187 | 7135 ft | 206 kts | 101° |
| 2026-05-09 22:21 | 38.88387 | -28.23421 | 7063 ft | 206 kts | 101° |
| 2026-05-09 22:22 | 38.87963 | -28.21688 | 6988 ft | 206 kts | 100° |
| 2026-05-09 22:22 | 38.87534 | -28.19932 | 6915 ft | 207 kts | 100° |
| 2026-05-09 22:22 | 38.87102 | -28.18170 | 6841 ft | 206 kts | 101° |
| 2026-05-09 22:22 | 38.86672 | -28.16416 | 6767 ft | 206 kts | 101° |
| 2026-05-09 22:23 | 38.86242 | -28.14662 | 6697 ft | 205 kts | 101° |
| 2026-05-09 22:23 | 38.85814 | -28.12916 | 6617 ft | 205 kts | 100° |
| 2026-05-09 22:23 | 38.85384 | -28.11167 | 6545 ft | 205 kts | 101° |
| 2026-05-09 22:23 | 38.84955 | -28.09419 | 6466 ft | 206 kts | 101° |
| 2026-05-09 22:24 | 38.84528 | -28.07683 | 6398 ft | 206 kts | 101° |
| 2026-05-09 22:24 | 38.84090 | -28.05903 | 6313 ft | 207 kts | 101° |
| 2026-05-09 22:24 | 38.83661 | -28.04161 | 6231 ft | 207 kts | 101° |
| 2026-05-09 22:24 | 38.83229 | -28.02411 | 6227 ft | 204 kts | 101° |
| 2026-05-09 22:25 | 38.82815 | -28.00734 | 6226 ft | 202 kts | 101° |
| 2026-05-09 22:25 | 38.82393 | -27.99023 | 6223 ft | 201 kts | 101° |
| 2026-05-09 22:25 | 38.81969 | -27.97301 | 6146 ft | 203 kts | 101° |
| 2026-05-09 22:25 | 38.81539 | -27.95558 | 6047 ft | 206 kts | 101° |
| 2026-05-09 22:26 | 38.81103 | -27.93797 | 5946 ft | 208 kts | 101° |
| 2026-05-09 22:26 | 38.80665 | -27.92028 | 5840 ft | 209 kts | 101° |
| 2026-05-09 22:26 | 38.80224 | -27.90252 | 5741 ft | 209 kts | 101° |
| 2026-05-09 22:26 | 38.79782 | -27.88466 | 5637 ft | 210 kts | 101° |
| 2026-05-09 22:27 | 38.79339 | -27.86682 | 5533 ft | 210 kts | 101° |
| 2026-05-09 22:27 | 38.78895 | -27.84893 | 5432 ft | 211 kts | 101° |
| 2026-05-09 22:27 | 38.78451 | -27.83106 | 5332 ft | 211 kts | 101° |
| 2026-05-09 22:27 | 38.78003 | -27.81306 | 5230 ft | 211 kts | 101° |
| 2026-05-09 22:28 | 38.77566 | -27.79551 | 5220 ft | 206 kts | 101° |
| 2026-05-09 22:28 | 38.77133 | -27.77816 | 5219 ft | 204 kts | 101° |
| 2026-05-09 22:28 | 38.76704 | -27.76086 | 5220 ft | 203 kts | 101° |
| 2026-05-09 22:28 | 38.76276 | -27.74370 | 5217 ft | 202 kts | 100° |
| 2026-05-09 22:29 | 38.75850 | -27.72664 | 5215 ft | 201 kts | 101° |
| 2026-05-09 22:29 | 38.75425 | -27.70962 | 5209 ft | 200 kts | 100° |
| 2026-05-09 22:29 | 38.75000 | -27.69256 | 5205 ft | 201 kts | 100° |
| 2026-05-09 22:29 | 38.74574 | -27.67550 | 5205 ft | 202 kts | 100° |
| 2026-05-09 22:30 | 38.74143 | -27.65831 | 5202 ft | 202 kts | 101° |
| 2026-05-09 22:30 | 38.73719 | -27.64137 | 5203 ft | 202 kts | 101° |
| 2026-05-09 22:30 | 38.73287 | -27.62413 | 5140 ft | 205 kts | 101° |
| 2026-05-09 22:30 | 38.72846 | -27.60647 | 5019 ft | 209 kts | 101° |
| 2026-05-09 22:31 | 38.72405 | -27.58902 | 5006 ft | 206 kts | 101° |
| 2026-05-09 22:31 | 38.71963 | -27.57144 | 5000 ft | 204 kts | 101° |
| 2026-05-09 22:31 | 38.71531 | -27.55424 | 4999 ft | 202 kts | 100° |
| 2026-05-09 22:31 | 38.71100 | -27.53707 | 4995 ft | 201 kts | 101° |
| 2026-05-09 22:32 | 38.70671 | -27.52000 | 4995 ft | 202 kts | 101° |
| 2026-05-09 22:32 | 38.70241 | -27.50291 | 4995 ft | 202 kts | 101° |
| 2026-05-09 22:32 | 38.69808 | -27.48572 | 4995 ft | 202 kts | 101° |
| 2026-05-09 22:32 | 38.69376 | -27.46860 | 5000 ft | 203 kts | 100° |
| 2026-05-09 22:33 | 38.68945 | -27.45153 | 4996 ft | 203 kts | 100° |
| 2026-05-09 22:33 | 38.68513 | -27.43439 | 4996 ft | 203 kts | 100° |
| 2026-05-09 22:33 | 38.68078 | -27.41718 | 4996 ft | 203 kts | 100° |
| 2026-05-09 22:33 | 38.67650 | -27.40027 | 4995 ft | 203 kts | 99° |
| 2026-05-09 22:34 | 38.67216 | -27.38312 | 4998 ft | 203 kts | 100° |
| 2026-05-09 22:34 | 38.66780 | -27.36589 | 4999 ft | 203 kts | 99° |
| 2026-05-09 22:34 | 38.66346 | -27.34874 | 4965 ft | 204 kts | 99° |
| 2026-05-09 22:34 | 38.65907 | -27.33139 | 4864 ft | 207 kts | 100° |
| 2026-05-09 22:35 | 38.65456 | -27.31362 | 4722 ft | 211 kts | 100° |
| 2026-05-09 22:35 | 38.65000 | -27.29565 | 4552 ft | 214 kts | 101° |
| 2026-05-09 22:35 | 38.64534 | -27.27734 | 4369 ft | 217 kts | 101° |
| 2026-05-09 22:35 | 38.64069 | -27.25906 | 4196 ft | 220 kts | 101° |
| 2026-05-09 22:36 | 38.63593 | -27.24042 | 4025 ft | 221 kts | 101° |
| 2026-05-09 22:36 | 38.63117 | -27.22171 | 3846 ft | 222 kts | 101° |
| 2026-05-09 22:36 | 38.62634 | -27.20274 | 3591 ft | 226 kts | 101° |
| 2026-05-09 22:36 | 38.62146 | -27.18360 | 3336 ft | 228 kts | 101° |
| 2026-05-09 22:37 | 38.61649 | -27.16419 | 3102 ft | 229 kts | 101° |
| 2026-05-09 22:37 | 38.61153 | -27.14484 | 2873 ft | 227 kts | 101° |
| 2026-05-09 22:37 | 38.60663 | -27.12562 | 2641 ft | 228 kts | 101° |
| 2026-05-09 22:37 | 38.60177 | -27.10659 | 2411 ft | 229 kts | 102° |
| 2026-05-09 22:38 | 38.59674 | -27.08697 | 2179 ft | 229 kts | 101° |
| 2026-05-09 22:38 | 38.59182 | -27.06782 | 1985 ft | 228 kts | 101° |
| 2026-05-09 22:38 | 38.58693 | -27.04884 | 1976 ft | 221 kts | 101° |
| 2026-05-09 22:39 | 38.59126 | -27.01562 | 1966 ft | 185 kts | 38° |
| 2026-05-09 22:39 | 38.60258 | -27.00884 | 1972 ft | 180 kts | 13° |
| 2026-05-09 22:39 | 38.61496 | -27.00805 | 1971 ft | 179 kts | 356° |
| 2026-05-09 22:40 | 38.63976 | -27.01009 | 1970 ft | 178 kts | 360° |
| 2026-05-09 22:40 | 38.65216 | -27.01010 | 1972 ft | 178 kts | 1° |
| 2026-05-09 22:40 | 38.66455 | -27.00993 | 1971 ft | 178 kts | 1° |
| 2026-05-09 22:40 | 38.67654 | -27.00991 | 1971 ft | 163 kts | 359° |
| 2026-05-09 22:41 | 38.68626 | -27.01396 | 1972 ft | 139 kts | 332° |
| 2026-05-09 22:41 | 38.69389 | -27.02087 | 1828 ft | 132 kts | 331° |
| 2026-05-09 22:41 | 38.70106 | -27.02780 | 1643 ft | 123 kts | 329° |
| 2026-05-09 22:41 | 38.70716 | -27.03402 | 1474 ft | 97 kts | 330° |
| 2026-05-09 22:42 | 38.71216 | -27.03912 | 1341 ft | 88 kts | 331° |
| 2026-05-09 22:42 | 38.71684 | -27.04386 | 1211 ft | 84 kts | 332° |
| 2026-05-09 22:42 | 38.72120 | -27.04843 | 1095 ft | 80 kts | 332° |
| 2026-05-09 22:42 | 38.72541 | -27.05280 | 972 ft | 77 kts | 330° |
| 2026-05-09 22:43 | 38.72958 | -27.05716 | 864 ft | 78 kts | 330° |
| 2026-05-09 22:43 | 38.73386 | -27.06165 | 749 ft | 83 kts | 327° |
| 2026-05-09 22:43 | 38.73832 | -27.06626 | 627 ft | 80 kts | 331° |
| 2026-05-09 22:43 | 38.74233 | -27.07050 | 521 ft | 70 kts | 330° |
| 2026-05-09 22:44 | 38.74609 | -27.07439 | 419 ft | 70 kts | 327° |
| 2026-05-09 22:44 | 38.74999 | -27.07840 | 324 ft | 74 kts | 328° |
| 2026-05-09 22:44 | 38.75358 | -27.08240 | 206 ft | 61 kts | 327° |
| 2026-05-09 22:44 | 38.75644 | -27.08528 | 173 ft | 42 kts | 328° |
| 2026-05-09 22:45 | 38.75809 | -27.08686 | 175 ft | 15 kts | 322° |
| 2026-05-09 22:45 | 38.75863 | -27.08742 | 175 ft | 6 kts | 322° |
| 2026-05-09 22:45 | 38.75883 | -27.08767 | 175 ft | 4 kts | 304° |
| 2026-05-09 22:45 | 38.75901 | -27.08799 | 175 ft | 3 kts | 314° |
| 2026-05-09 22:46 | 38.75919 | -27.08817 | 175 ft | 3 kts | 324° |
| 2026-05-09 22:46 | 38.75936 | -27.08833 | 175 ft | 3 kts | 324° |
| 2026-05-09 22:46 | 38.75957 | -27.08859 | 175 ft | 5 kts | 283° |
| 2026-05-09 22:47 | 38.75832 | -27.08904 | 173 ft | 15 kts | 184° |
| 2026-05-09 22:47 | 38.75742 | -27.08862 | 173 ft | 13 kts | 141° |
| 2026-05-09 22:47 | 38.75712 | -27.08831 | 173 ft | 0 kts | 141° |